createdAt,value
2022-11-02T00:00:30.551Z,1.73
2022-11-02T00:02:58.693Z,1.73
2022-11-02T00:05:26.581Z,1.87
2022-11-02T00:07:56.978Z,1.80
2022-11-02T00:10:26.927Z,1.53
2022-11-02T00:12:54.862Z,1.30
2022-11-02T00:15:25.102Z,1.40
2022-11-02T00:17:58.365Z,1.90
2022-11-02T00:20:27.806Z,2.00
2022-11-02T00:22:58.329Z,1.60
2022-11-02T00:25:28.746Z,1.60
2022-11-02T00:27:56.749Z,1.57
2022-11-02T00:30:24.472Z,1.70
2022-11-02T00:32:52.629Z,2.00
2022-11-02T00:35:20.326Z,1.73
2022-11-02T00:37:48.072Z,1.80
2022-11-02T00:40:15.781Z,1.80
2022-11-02T00:42:44.873Z,1.40
2022-11-02T00:45:12.584Z,1.50
2022-11-02T00:47:40.411Z,2.00
2022-11-02T00:50:09.231Z,1.47
2022-11-02T00:52:39.275Z,1.67
2022-11-02T00:55:08.920Z,1.90
2022-11-02T00:57:36.960Z,1.30
2022-11-02T01:00:07.940Z,1.60
2022-11-02T01:02:35.993Z,2.03
2022-11-02T01:05:03.943Z,1.60
2022-11-02T01:07:31.977Z,1.57
2022-11-02T01:09:59.695Z,1.87
2022-11-02T01:12:27.771Z,1.80
2022-11-02T01:14:55.544Z,1.40
2022-11-02T01:17:24.760Z,1.63
2022-11-02T01:19:52.753Z,1.80
2022-11-02T01:22:20.687Z,1.60
2022-11-02T01:24:48.466Z,1.40
2022-11-02T01:27:16.202Z,1.37
2022-11-02T01:29:43.958Z,1.53
2022-11-02T01:32:11.656Z,1.60
2022-11-02T01:34:40.801Z,1.60
2022-11-02T01:37:08.601Z,1.43
2022-11-02T01:39:36.378Z,1.67
2022-11-02T01:42:04.723Z,1.70
2022-11-02T01:44:34.011Z,1.50
2022-11-02T01:47:07.040Z,1.77
2022-11-02T01:49:38.921Z,1.50
2022-11-02T01:52:12.883Z,1.57
2022-11-02T01:54:45.431Z,1.60
2022-11-02T01:57:17.224Z,1.40
2022-11-02T01:59:49.700Z,1.73
2022-11-02T02:02:21.546Z,1.60
2022-11-02T02:04:52.479Z,1.40
2022-11-02T02:07:24.977Z,1.60
2022-11-02T02:09:55.026Z,1.77
2022-11-02T02:12:23.619Z,1.50
2022-11-02T02:14:52.089Z,1.50
2022-11-02T02:17:33.333Z,1.43
2022-11-02T02:20:06.307Z,1.63
2022-11-02T02:22:52.063Z,1.90
2022-11-02T02:25:36.141Z,1.70
2022-11-02T02:28:16.286Z,1.90
2022-11-02T02:30:51.257Z,1.37
2022-11-02T02:33:29.235Z,1.33
2022-11-02T02:36:01.543Z,2.03
2022-11-02T02:38:34.682Z,1.60
2022-11-02T02:41:12.140Z,1.53
2022-11-02T02:43:45.122Z,1.50
2022-11-02T02:46:20.203Z,1.40
2022-11-02T02:48:51.139Z,1.47
2022-11-02T02:51:23.673Z,1.60
2022-11-02T02:53:58.232Z,1.47
2022-11-02T02:56:30.253Z,1.13
2022-11-02T02:59:02.398Z,1.57
2022-11-02T03:01:30.571Z,1.60
2022-11-02T03:03:58.311Z,1.70
2022-11-02T03:06:31.952Z,1.23
2022-11-02T03:09:07.254Z,1.47
2022-11-02T03:11:38.587Z,1.50
2022-11-02T03:14:19.888Z,1.53
2022-11-02T03:17:04.304Z,1.87
2022-11-02T03:19:40.049Z,1.90
2022-11-02T03:22:15.217Z,1.40
2022-11-02T03:24:51.031Z,1.67
2022-11-02T03:27:22.694Z,1.77
2022-11-02T03:29:58.076Z,1.90
2022-11-02T03:32:33.022Z,1.57
2022-11-02T03:35:05.322Z,1.50
2022-11-02T03:37:38.795Z,1.73
2022-11-02T03:40:11.963Z,1.47
2022-11-02T03:42:41.754Z,1.43
2022-11-02T03:45:17.847Z,1.83
2022-11-02T03:47:50.730Z,1.73
2022-11-02T03:50:22.553Z,1.70
2022-11-02T03:52:57.557Z,2.37
2022-11-02T03:55:29.532Z,1.40
2022-11-02T03:57:57.693Z,1.60
2022-11-02T04:00:29.482Z,1.37
2022-11-02T04:03:00.459Z,1.37
2022-11-02T04:05:32.603Z,1.60
2022-11-02T04:08:18.566Z,1.50
2022-11-02T04:11:03.919Z,1.30
2022-11-02T04:13:49.415Z,1.50
2022-11-02T04:16:21.259Z,1.93
2022-11-02T04:19:09.936Z,1.57
2022-11-02T04:21:37.710Z,1.27
2022-11-02T04:24:23.498Z,1.73
2022-11-02T04:26:51.324Z,2.03
2022-11-02T04:29:19.026Z,1.47
2022-11-02T04:31:48.191Z,1.50
2022-11-02T04:34:14.889Z,1.67
2022-11-02T04:36:42.626Z,1.80
2022-11-02T04:39:09.326Z,1.60
2022-11-02T04:41:43.185Z,1.93
2022-11-02T04:44:13.131Z,1.80
2022-11-02T04:46:41.759Z,1.50
2022-11-02T04:49:11.805Z,1.60
2022-11-02T04:51:44.545Z,1.40
2022-11-02T04:54:19.509Z,1.93
2022-11-02T04:56:47.417Z,1.93
2022-11-02T04:59:15.147Z,1.70
2022-11-02T05:01:43.092Z,1.67
2022-11-02T05:04:12.240Z,2.07
2022-11-02T05:06:39.966Z,1.80
2022-11-02T05:09:07.743Z,1.43
2022-11-02T05:11:35.455Z,1.53
2022-11-02T05:14:03.184Z,2.00
2022-11-02T05:16:33.227Z,1.53
2022-11-02T05:19:00.971Z,3.90
2022-11-02T05:21:30.040Z,2.10
2022-11-02T05:23:58.302Z,1.73
2022-11-02T05:26:25.994Z,1.80
2022-11-02T05:28:53.838Z,1.73
2022-11-02T05:31:21.741Z,1.53
2022-11-02T05:33:49.520Z,1.50
2022-11-02T05:36:17.398Z,1.30
2022-11-02T05:38:46.548Z,1.67
2022-11-02T05:41:14.276Z,1.93
2022-11-02T05:43:41.943Z,2.00
2022-11-02T05:46:09.670Z,1.40
2022-11-02T05:48:37.389Z,1.63
2022-11-02T05:51:08.766Z,1.60
2022-11-02T05:53:38.362Z,1.50
2022-11-02T05:56:14.590Z,1.70
2022-11-02T05:58:42.437Z,1.47
2022-11-02T06:01:11.743Z,1.50
2022-11-02T06:03:39.476Z,1.67
2022-11-02T06:06:09.147Z,1.40
2022-11-02T06:08:38.283Z,1.90
2022-11-02T06:11:08.195Z,1.60
2022-11-02T06:13:39.492Z,1.50
2022-11-02T06:16:09.500Z,1.50
2022-11-02T06:18:37.392Z,1.53
2022-11-02T06:21:05.673Z,1.80
2022-11-02T06:23:33.404Z,1.60
2022-11-02T06:26:02.153Z,1.60
2022-11-02T06:28:31.975Z,1.80
2022-11-02T06:30:59.935Z,1.33
2022-11-02T06:33:27.727Z,1.80
2022-11-02T06:35:56.161Z,1.50
2022-11-02T06:38:24.269Z,1.33
2022-11-02T06:40:56.075Z,1.33
2022-11-02T06:43:24.656Z,1.53
2022-11-02T06:45:57.062Z,1.40
2022-11-02T06:48:28.641Z,1.60
2022-11-02T06:50:59.259Z,1.80
2022-11-02T06:53:27.387Z,1.93
2022-11-02T06:55:55.588Z,1.80
2022-11-02T06:58:24.846Z,2.00
2022-11-02T07:01:00.182Z,1.90
2022-11-02T07:03:28.641Z,1.50
2022-11-02T07:05:56.446Z,1.50
2022-11-02T07:08:24.777Z,2.13
2022-11-02T07:10:53.585Z,1.60
2022-11-02T07:13:24.088Z,1.77
2022-11-02T07:15:53.288Z,1.80
2022-11-02T07:18:22.525Z,1.90
2022-11-02T07:20:51.145Z,1.90
2022-11-02T07:23:24.445Z,1.50
2022-11-02T07:25:53.304Z,1.60
2022-11-02T07:28:21.914Z,2.00
2022-11-02T07:30:50.163Z,1.67
2022-11-02T07:33:20.258Z,1.90
2022-11-02T07:35:49.328Z,1.77
2022-11-02T07:38:17.114Z,1.90
2022-11-02T07:40:44.906Z,1.90
2022-11-02T07:43:12.669Z,1.63
2022-11-02T07:45:41.763Z,1.73
2022-11-02T07:48:09.676Z,1.50
2022-11-02T07:50:37.433Z,1.80
2022-11-02T07:53:07.080Z,2.07
2022-11-02T07:55:35.033Z,1.50
2022-11-02T07:58:04.162Z,1.83
2022-11-02T08:00:34.710Z,1.30
2022-11-02T08:03:04.674Z,1.37
2022-11-02T08:05:36.031Z,1.50
2022-11-02T08:08:07.691Z,1.47
2022-11-02T08:10:40.494Z,1.70
2022-11-02T08:13:09.343Z,1.37
2022-11-02T08:15:43.812Z,1.13
2022-11-02T08:18:15.150Z,1.90
2022-11-02T08:20:43.762Z,1.67
2022-11-02T08:23:13.373Z,1.30
2022-11-02T08:25:41.651Z,1.77
2022-11-02T08:28:13.485Z,1.27
2022-11-02T08:30:41.325Z,1.50
2022-11-02T08:33:13.322Z,1.40
2022-11-02T08:35:41.485Z,1.43
2022-11-02T08:38:10.027Z,1.60
2022-11-02T08:40:42.307Z,1.70
2022-11-02T08:43:11.515Z,1.47
2022-11-02T08:48:30.006Z,1.60
2022-11-02T08:50:57.778Z,1.60
2022-11-02T08:53:25.529Z,1.03
2022-11-02T08:55:54.594Z,1.70
2022-11-02T08:58:22.290Z,1.63
2022-11-02T09:00:52.321Z,1.17
2022-11-02T09:03:26.192Z,1.67
2022-11-02T09:05:58.916Z,1.60
2022-11-02T09:08:27.889Z,1.53
2022-11-02T09:10:59.988Z,1.53
2022-11-02T09:13:28.693Z,1.30
2022-11-02T09:15:58.202Z,1.50
2022-11-02T09:18:25.993Z,1.13
2022-11-02T09:20:53.843Z,1.53
2022-11-02T09:23:23.000Z,1.47
2022-11-02T09:25:51.067Z,1.80
2022-11-02T09:28:20.554Z,1.37
2022-11-02T09:30:48.328Z,1.20
2022-11-02T09:33:19.341Z,1.20
2022-11-02T09:35:49.569Z,1.93
2022-11-02T09:38:19.216Z,1.40
2022-11-02T09:40:55.320Z,1.37
2022-11-02T09:43:33.792Z,1.40
2022-11-02T09:46:05.871Z,1.53
2022-11-02T09:48:37.573Z,1.30
2022-11-02T09:51:10.478Z,1.40
2022-11-02T09:53:49.270Z,1.20
2022-11-02T09:56:21.609Z,1.40
2022-11-02T09:59:00.969Z,1.50
2022-11-02T10:01:42.869Z,1.60
2022-11-02T10:04:43.959Z,1.43
2022-11-02T10:07:21.568Z,1.40
2022-11-02T10:09:55.459Z,1.30
2022-11-02T10:12:30.640Z,1.60
2022-11-02T10:15:09.680Z,1.30
2022-11-02T10:17:41.005Z,1.80
2022-11-02T10:20:27.820Z,1.63
2022-11-02T10:22:59.587Z,1.37
2022-11-02T10:25:27.765Z,1.60
2022-11-02T10:28:04.603Z,1.40
2022-11-02T10:30:33.860Z,1.43
2022-11-02T10:33:01.664Z,1.77
2022-11-02T10:36:12.468Z,1.10
2022-11-02T10:38:46.573Z,1.63
2022-11-02T10:41:42.716Z,1.53
2022-11-02T10:44:25.773Z,1.63
2022-11-02T10:47:07.919Z,1.60
2022-11-02T10:49:57.998Z,1.47
2022-11-02T10:52:26.137Z,1.57
2022-11-02T10:54:54.567Z,1.40
2022-11-02T10:57:25.641Z,1.60
2022-11-02T11:00:25.826Z,1.43
2022-11-02T11:03:08.953Z,1.70
2022-11-02T11:05:39.689Z,1.73
2022-11-02T11:08:08.150Z,1.60
2022-11-02T11:10:39.155Z,1.80
2022-11-02T11:15:56.484Z,1.73
2022-11-02T11:21:13.885Z,1.33
2022-11-02T11:23:43.109Z,1.30
2022-11-02T11:26:28.467Z,1.40
2022-11-02T11:28:57.818Z,1.60
2022-11-02T11:31:26.681Z,1.73
2022-11-02T11:33:57.601Z,1.57
2022-11-02T11:36:28.813Z,1.53
2022-11-02T11:38:59.534Z,1.50
2022-11-02T11:41:27.945Z,1.43
2022-11-02T11:43:55.911Z,1.50
2022-11-02T11:46:24.023Z,1.47
2022-11-02T11:48:54.159Z,1.43
2022-11-02T11:51:29.270Z,1.40
2022-11-02T11:54:08.507Z,1.80
2022-11-02T11:56:36.259Z,1.40
2022-11-02T11:59:04.315Z,1.30
2022-11-02T12:01:41.176Z,1.00
2022-11-02T12:04:09.753Z,1.20
2022-11-02T12:06:48.847Z,1.30
2022-11-02T12:09:26.923Z,1.00
2022-11-02T12:12:03.692Z,1.30
2022-11-02T12:14:42.082Z,1.20
2022-11-02T12:17:24.418Z,1.40
2022-11-02T12:20:26.965Z,1.57
2022-11-02T12:23:06.567Z,1.90
2022-11-02T12:25:48.082Z,1.57
2022-11-02T12:28:30.050Z,1.97
2022-11-02T12:31:07.013Z,1.90
2022-11-02T12:33:50.962Z,1.47
2022-11-02T12:36:39.556Z,1.30
2022-11-02T12:39:34.048Z,1.20
2022-11-02T12:42:15.365Z,1.70
2022-11-02T12:44:55.007Z,1.00
2022-11-02T12:47:43.637Z,0.97
2022-11-02T12:50:23.649Z,1.23
2022-11-02T12:53:03.409Z,1.00
2022-11-02T12:55:38.754Z,1.20
2022-11-02T12:58:09.172Z,0.90
2022-11-02T13:00:42.225Z,1.17
2022-11-02T13:03:24.868Z,1.00
2022-11-02T13:05:57.446Z,0.80
2022-11-02T13:08:34.211Z,1.10
2022-11-02T13:11:09.048Z,1.07
2022-11-02T13:13:42.609Z,0.80
2022-11-02T13:16:12.739Z,0.80
2022-11-02T13:18:45.994Z,0.77
2022-11-02T13:21:16.818Z,0.70
2022-11-02T13:23:48.686Z,0.87
2022-11-02T13:26:28.200Z,1.20
2022-11-02T13:28:59.105Z,0.70
2022-11-02T13:31:31.567Z,0.90
2022-11-02T13:34:03.556Z,0.70
2022-11-02T13:36:32.156Z,0.83
2022-11-02T13:39:04.554Z,0.90
2022-11-02T13:41:58.957Z,0.90
2022-11-02T13:44:52.108Z,1.20
2022-11-02T13:47:49.750Z,1.10
2022-11-02T13:50:20.498Z,1.80
2022-11-02T13:52:52.805Z,1.17
2022-11-02T13:55:24.511Z,1.60
2022-11-02T13:57:59.074Z,1.20
2022-11-02T14:00:45.303Z,1.20
2022-11-02T14:03:18.228Z,1.50
2022-11-02T14:05:49.977Z,0.83
2022-11-02T14:08:23.476Z,0.70
2022-11-02T14:11:06.157Z,0.87
2022-11-02T14:14:19.149Z,0.57
2022-11-02T14:16:58.727Z,0.30
2022-11-02T14:19:33.064Z,0.57
2022-11-02T14:22:12.659Z,0.67
2022-11-02T14:25:13.978Z,0.63
2022-11-02T14:27:41.842Z,0.80
2022-11-02T14:30:45.518Z,0.80
2022-11-02T14:33:38.917Z,0.90
2022-11-02T14:36:11.140Z,0.83
2022-11-02T14:39:00.865Z,0.63
2022-11-02T14:41:52.264Z,0.50
2022-11-02T14:44:58.757Z,1.10
2022-11-02T14:47:31.426Z,0.30
2022-11-02T14:50:06.292Z,0.80
2022-11-02T14:52:36.952Z,0.87
2022-11-02T14:55:09.201Z,0.60
2022-11-02T14:57:39.910Z,0.80
2022-11-02T15:00:20.991Z,0.97
2022-11-02T15:02:53.150Z,0.77
2022-11-02T15:05:28.137Z,1.07
2022-11-02T15:07:59.879Z,0.60
2022-11-02T15:10:43.743Z,0.80
2022-11-02T16:23:49.670Z,0.87
2022-11-02T16:26:22.292Z,0.90
2022-11-02T16:28:52.075Z,0.90
2022-11-02T16:31:22.990Z,0.80
2022-11-02T16:33:53.283Z,0.93
2022-11-02T16:36:23.846Z,1.07
2022-11-02T16:38:59.986Z,1.20
2022-11-02T16:41:31.504Z,1.20
2022-11-02T16:44:02.315Z,1.07
2022-11-02T16:46:32.483Z,1.20
2022-11-02T16:49:13.586Z,1.10
2022-11-02T16:51:41.570Z,1.20
2022-11-02T16:54:24.849Z,1.20
2022-11-02T16:56:55.361Z,1.00
2022-11-02T16:59:23.849Z,1.27
2022-11-02T17:01:51.831Z,1.13
2022-11-02T17:04:22.661Z,1.60
2022-11-02T17:06:52.991Z,1.00
2022-11-02T17:09:28.031Z,1.27
2022-11-02T17:11:59.354Z,1.20
2022-11-02T17:14:29.212Z,1.20
2022-11-02T17:17:02.908Z,1.27
2022-11-02T17:19:48.044Z,1.40
2022-11-02T17:22:23.830Z,1.27
2022-11-02T17:25:04.719Z,3.27
2022-11-02T17:27:39.191Z,1.20
2022-11-02T17:30:43.500Z,1.27
2022-11-02T17:33:16.946Z,1.00
2022-11-02T17:35:47.530Z,1.43
2022-11-02T17:38:16.128Z,1.40
2022-11-02T17:40:44.019Z,1.07
2022-11-02T17:43:12.242Z,1.13
2022-11-02T17:45:40.402Z,1.40
2022-11-02T17:48:09.827Z,1.13
2022-11-02T17:50:40.432Z,1.37
2022-11-02T17:53:13.816Z,1.00
2022-11-02T17:55:42.440Z,1.33
2022-11-02T17:58:11.265Z,1.27
2022-11-02T18:00:40.651Z,1.20
2022-11-02T18:03:16.777Z,1.17
2022-11-02T18:05:48.547Z,1.50
2022-11-02T18:08:18.330Z,1.37
2022-11-02T18:10:48.328Z,1.30
2022-11-02T18:13:18.751Z,1.27
2022-11-02T18:15:48.439Z,1.43
2022-11-02T18:18:18.568Z,1.37
2022-11-02T18:20:46.653Z,1.77
2022-11-02T18:23:16.777Z,1.43
2022-11-02T18:25:44.874Z,1.40
2022-11-02T18:28:12.615Z,1.50
2022-11-02T18:30:45.163Z,1.27
2022-11-02T18:33:14.512Z,1.10
2022-11-02T18:35:44.084Z,1.50
2022-11-02T18:38:12.641Z,1.30
2022-11-02T18:40:42.162Z,1.40
2022-11-02T18:43:10.213Z,1.20
2022-11-02T18:45:38.231Z,1.57
2022-11-02T18:48:06.832Z,1.30
2022-11-02T18:50:36.056Z,1.67
2022-11-02T18:53:03.734Z,1.40
2022-11-02T18:55:31.476Z,1.20
2022-11-02T18:57:59.588Z,2.00
2022-11-02T19:00:27.298Z,1.67
2022-11-02T19:02:55.023Z,1.50
2022-11-02T19:05:40.339Z,1.50
2022-11-02T19:08:27.935Z,1.50
2022-11-02T19:10:55.682Z,1.93
2022-11-02T19:13:23.435Z,1.53
2022-11-02T19:15:51.139Z,1.40
2022-11-02T19:18:18.901Z,1.50
2022-11-02T19:20:46.586Z,1.50
2022-11-02T19:23:17.361Z,1.50
2022-11-02T19:25:50.708Z,1.67
2022-11-02T19:28:18.590Z,1.50
2022-11-02T19:30:46.337Z,1.27
2022-11-02T19:33:14.089Z,2.03
2022-11-02T19:35:41.799Z,1.83
2022-11-02T19:38:09.496Z,1.57
2022-11-02T19:40:38.573Z,1.47
2022-11-02T19:43:06.585Z,1.80
2022-11-02T19:45:34.391Z,2.07
2022-11-02T19:48:03.111Z,2.03
2022-11-02T19:50:31.160Z,1.50
2022-11-02T19:53:01.119Z,2.20
2022-11-02T19:55:29.755Z,2.37
2022-11-02T19:57:59.125Z,2.70
2022-11-02T20:00:26.857Z,2.10
2022-11-02T20:02:54.816Z,1.90
2022-11-02T20:05:22.678Z,2.27
2022-11-02T20:07:52.358Z,2.20
2022-11-02T20:10:20.147Z,2.10
2022-11-02T20:12:47.958Z,2.03
2022-11-02T20:15:17.159Z,1.60
2022-11-02T20:18:05.478Z,1.83
2022-11-02T20:20:32.665Z,1.70
2022-11-02T20:23:01.321Z,1.67
2022-11-02T20:25:29.088Z,1.70
2022-11-02T20:27:56.905Z,1.33
2022-11-02T20:30:25.990Z,1.80
2022-11-02T20:32:53.706Z,2.00
2022-11-02T20:35:25.470Z,1.70
2022-11-02T20:37:54.659Z,2.10
2022-11-02T20:40:22.517Z,1.70
2022-11-02T20:42:50.691Z,1.70
2022-11-02T20:45:18.913Z,1.83
2022-11-02T20:47:51.936Z,1.73
2022-11-02T20:50:24.820Z,1.80
2022-11-02T20:52:55.337Z,1.60
2022-11-02T20:55:23.702Z,1.73
2022-11-02T20:57:51.834Z,1.73
2022-11-02T21:00:20.440Z,1.50
2022-11-02T21:02:49.042Z,1.80
2022-11-02T21:05:18.422Z,1.80
2022-11-02T21:07:46.290Z,1.57
2022-11-02T21:10:14.132Z,1.77
2022-11-02T21:12:59.505Z,1.80
2022-11-02T21:15:30.180Z,1.93
2022-11-02T21:17:59.389Z,1.67
2022-11-02T21:20:34.172Z,1.83
2022-11-02T21:23:02.906Z,2.10
2022-11-02T21:25:32.095Z,1.83
2022-11-02T21:28:00.858Z,1.70
2022-11-02T21:30:30.929Z,1.93
2022-11-02T21:32:59.175Z,1.90
2022-11-02T21:35:28.352Z,1.80
2022-11-02T21:38:00.086Z,1.30
2022-11-02T21:40:30.284Z,2.00
2022-11-02T21:42:58.044Z,1.57
2022-11-02T21:45:26.424Z,1.70
2022-11-02T21:47:54.218Z,2.00
2022-11-02T21:50:22.056Z,1.47
2022-11-02T21:52:51.099Z,1.83
2022-11-02T21:55:19.055Z,1.70
2022-11-02T21:57:46.810Z,1.50
2022-11-02T22:00:15.620Z,2.20
2022-11-02T22:02:42.414Z,1.90
2022-11-02T22:05:30.407Z,1.77
2022-11-02T22:08:17.313Z,1.90
2022-11-02T22:10:45.154Z,2.07
2022-11-02T22:13:35.516Z,1.93
2022-11-02T22:16:15.436Z,1.73
2022-11-02T22:18:44.266Z,2.03
2022-11-02T22:21:12.125Z,1.83
2022-11-02T22:23:41.901Z,1.50
2022-11-02T22:26:17.268Z,1.97
2022-11-02T22:28:46.321Z,1.63
2022-11-02T22:31:15.841Z,2.43
2022-11-02T22:33:44.501Z,1.80
2022-11-02T22:36:14.577Z,1.97
2022-11-02T22:38:51.283Z,1.97
2022-11-02T22:41:20.990Z,2.27
2022-11-02T22:43:50.035Z,2.00
2022-11-02T22:46:18.007Z,1.90
2022-11-02T22:48:45.757Z,2.10
2022-11-02T22:51:14.112Z,2.27
2022-11-02T22:53:43.235Z,1.93
2022-11-02T22:56:13.203Z,2.00
2022-11-02T22:58:42.207Z,1.90
2022-11-02T23:01:16.303Z,2.40
2022-11-02T23:03:44.770Z,1.97
2022-11-02T23:06:12.989Z,2.13
2022-11-02T23:08:44.688Z,2.47
2022-11-02T23:11:24.861Z,2.10
2022-11-02T23:13:55.957Z,1.80
2022-11-02T23:16:25.749Z,2.33
2022-11-02T23:19:14.471Z,2.00
2022-11-02T23:21:44.254Z,1.97
2022-11-02T23:24:31.505Z,2.53
2022-11-02T23:26:59.344Z,2.10
2022-11-02T23:29:44.714Z,2.10
2022-11-02T23:32:29.622Z,1.80
2022-11-02T23:35:15.808Z,2.07
2022-11-02T23:37:45.367Z,1.83
2022-11-02T23:40:16.942Z,2.00
2022-11-02T23:42:44.627Z,1.83
2022-11-02T23:45:12.850Z,1.73
2022-11-02T23:48:00.603Z,2.50
2022-11-02T23:50:48.741Z,1.80
2022-11-02T23:53:36.442Z,2.20
2022-11-02T23:56:24.258Z,2.10
2022-11-02T23:59:06.530Z,2.17
